Lloc web orientat als practicants d'activitats
Centenari de l'SMC: 100 anys mirant el cel

Dades de l'estació automàtica Santa Coloma de Farners

?
?

Resum diari

22:30 TU
Dades diàries de l'estació meteorològica
Temperatura mitjana 10.6 °C
Temperatura màxima 17.0 °C 13:02 TU
Temperatura mínima 4.1 °C 5:31 TU
Humitat relativa mitjana 73%
Precipitació acumulada 0.0 mm
Ratxa màxima del vent (10 m) 25.9 km/h - 158º 13:21 TU
Irradiació solar global 19.8 MJ/m2

El tram horari està expressat en Temps Universal (TU). Cal sumar una hora en horari d'hivern i dues en horari d'estiu per passar a l'hora oficial.

Santa Coloma de Farners

Metadades estació meteorològica
Municipi Santa Coloma de Farners
Comarca Selva
Altitud 162 m
Data alta 26.03.2013
Estat actual Operativa
Dades de període
Període
TU
TM
°C
TX
°C
TN
°C
HRM
%
PPT
mm
VVM (10 m)
km/h
DVM (10 m)
graus
VVX (10 m)
km/h
RS
W/m2
00:00 - 00:30 5.8 6.0 5.6 91 0.0 4.3 310 9.0 0
00:30 - 01:00 5.4 5.6 5.2 92 0.0 4.7 306 8.3 0
01:00 - 01:30 5.2 5.2 5.1 93 0.0 4.7 316 10.1 0
01:30 - 02:00 5.0 5.1 4.8 94 0.0 5.0 315 8.6 0
02:00 - 02:30 5.2 5.6 4.8 94 0.0 5.4 312 8.6 0
02:30 - 03:00 5.7 5.9 5.7 93 0.0 3.6 325 6.8 0
03:00 - 03:30 5.5 5.7 5.2 94 0.0 1.1 17 4.7 0
03:30 - 04:00 5.4 5.7 5.1 94 0.0 2.2 318 6.5 0
04:00 - 04:30 5.2 5.3 5.0 95 0.0 3.6 315 6.1 0
04:30 - 05:00 4.8 5.1 4.4 96 0.0 4.3 314 7.2 0
05:00 - 05:30 4.2 4.4 4.1 96 0.0 5.0 314 7.2 6
05:30 - 06:00 4.3 4.6 4.1 96 0.0 4.3 314 6.5 53
06:00 - 06:30 5.3 6.4 4.7 93 0.0 1.8 299 5.8 141
06:30 - 07:00 7.5 9.4 6.5 82 0.0 1.1 121 6.1 245
07:00 - 07:30 9.5 10.1 9.1 70 0.0 3.2 84 6.8 347
07:30 - 08:00 10.4 11.6 9.7 68 0.0 1.4 165 6.5 455
08:00 - 08:30 12.0 12.7 11.3 59 0.0 3.6 104 9.4 553
08:30 - 09:00 12.6 13.4 11.8 56 0.0 5.8 111 11.5 641
09:00 - 09:30 13.4 14.2 12.5 53 0.0 4.7 126 12.6 718
09:30 - 10:00 14.0 14.6 13.7 52 0.0 4.7 99 13.7 789
10:00 - 10:30 15.1 16.0 14.4 51 0.0 5.0 180 13.0 880
10:30 - 11:00 15.6 16.5 14.4 50 0.0 5.8 167 15.8 864
11:00 - 11:30 15.0 15.7 14.5 50 0.0 5.8 153 16.2 435
11:30 - 12:00 15.6 16.1 15.2 50 0.0 7.9 153 16.9 568
12:00 - 12:30 15.5 16.2 15.0 52 0.0 10.4 157 22.0 511
12:30 - 13:00 15.7 16.5 14.8 54 0.0 11.2 151 23.8 709
13:00 - 13:30 15.6 17.0 14.9 54 0.0 11.9 152 25.9 503
13:30 - 14:00 15.6 16.1 15.1 55 0.0 11.5 152 25.9 550
14:00 - 14:30 16.2 16.8 15.6 52 0.0 11.5 168 24.5 674
14:30 - 15:00 15.8 16.3 15.4 53 0.0 11.2 177 24.5 502
15:00 - 15:30 15.4 15.8 15.2 55 0.0 10.1 160 22.0 337
15:30 - 16:00 15.0 15.5 14.5 58 0.0 8.3 153 19.8 176
16:00 - 16:30 14.4 14.7 14.1 60 0.0 10.4 134 20.2 172
16:30 - 17:00 13.7 14.1 13.2 62 0.0 10.1 133 22.3 113
17:00 - 17:30 12.9 13.2 12.4 65 0.0 9.0 138 17.6 66
17:30 - 18:00 12.1 12.4 11.8 69 0.0 5.8 115 12.6 26
18:00 - 18:30 11.6 11.9 11.1 73 0.0 3.6 108 8.6 6
18:30 - 19:00 10.8 11.1 10.6 77 0.0 4.7 53 6.8 0
19:00 - 19:30 10.4 10.6 10.2 78 0.0 4.7 38 6.8 0
19:30 - 20:00 10.1 10.3 9.9 81 0.0 2.5 319 5.4 0
20:00 - 20:30 10.0 10.1 9.9 83 0.0 3.2 321 6.5 0
20:30 - 21:00 10.0 10.1 9.9 83 0.0 4.0 329 6.1 0
21:00 - 21:30 10.2 10.2 10.1 83 0.0 0.7 303 3.6 0
21:30 - 22:00 10.3 10.4 10.2 82 0.0 0.7 133 2.9 0
22:00 - 22:30 10.2 10.4 10.0 83 0.0 2.2 71 4.0 0
22:30 - 23:00 10.0 10.1 9.9 86 0.0 1.8 316 3.6 0

Les dades en taronja només han passat un control de qualitat automàtic. Resta pendent la seva validació definitiva.